createdAt,value
2019-04-04T00:01:40.654Z,6.30
2019-04-04T00:04:16.037Z,6.30
2019-04-04T00:06:51.063Z,6.30
2019-04-04T00:09:27.143Z,6.20
2019-04-04T00:12:02.156Z,6.20
2019-04-04T00:14:37.187Z,6.20
2019-04-04T00:17:13.042Z,6.00
2019-04-04T00:19:47.694Z,6.00
2019-04-04T00:22:21.878Z,6.00
2019-04-04T00:25:00.230Z,6.00
2019-04-04T00:27:36.042Z,6.00
2019-04-04T00:30:11.896Z,5.90
2019-04-04T00:32:47.678Z,5.80
2019-04-04T00:35:21.679Z,5.60
2019-04-04T00:37:57.684Z,5.80
2019-04-04T00:40:32.237Z,5.80
2019-04-04T00:43:07.884Z,5.80
2019-04-04T00:49:30.852Z,5.80
2019-04-04T00:55:46.929Z,5.80
2019-04-04T00:58:24.379Z,5.70
2019-04-04T01:01:01.039Z,5.80
2019-04-04T01:03:41.207Z,5.90
2019-04-04T01:06:18.065Z,5.90
2019-04-04T01:12:34.080Z,6.00
2019-04-04T01:15:15.692Z,6.00
2019-04-04T01:17:51.111Z,6.20
2019-04-04T01:20:29.230Z,6.20
2019-04-04T01:23:05.065Z,6.10
2019-04-04T01:29:20.053Z,6.00
2019-04-04T01:35:36.069Z,6.20
2019-04-04T01:41:52.149Z,6.20
2019-04-04T01:48:07.272Z,5.80
2019-04-04T01:50:42.924Z,6.10
2019-04-04T01:53:19.720Z,6.10
2019-04-04T01:59:36.220Z,6.20
2019-04-04T02:02:13.097Z,6.10
2019-04-04T02:04:55.556Z,6.10
2019-04-04T02:07:33.198Z,6.10
2019-04-04T02:10:11.099Z,6.10
2019-04-04T02:16:28.168Z,6.00
2019-04-04T02:22:35.149Z,6.00
2019-04-04T02:28:53.721Z,6.00
2019-04-04T02:31:32.541Z,6.20
2019-04-04T02:34:11.260Z,6.10
2019-04-04T02:40:10.017Z,6.10
2019-04-04T02:42:47.350Z,6.30
2019-04-04T02:45:24.235Z,6.30
2019-04-04T02:48:00.302Z,6.30
2019-04-04T02:50:42.282Z,6.10
2019-04-04T02:53:20.440Z,5.90
2019-04-04T02:55:56.246Z,5.70
2019-04-04T02:58:31.725Z,5.80
2019-04-04T03:01:08.354Z,5.90
2019-04-04T03:03:45.231Z,5.80
2019-04-04T03:06:24.483Z,5.70
2019-04-04T03:09:03.088Z,5.70
2019-04-04T03:11:39.597Z,5.80
2019-04-04T03:14:18.474Z,5.80
2019-04-04T03:16:56.319Z,5.80
2019-04-04T03:19:33.050Z,5.80
2019-04-04T03:22:08.733Z,5.70
2019-04-04T03:24:44.782Z,5.70
2019-04-04T03:27:26.895Z,5.70
2019-04-04T03:30:00.346Z,5.60
2019-04-04T03:32:34.827Z,5.40
2019-04-04T03:35:11.037Z,5.40
2019-04-04T03:37:47.085Z,5.50
2019-04-04T03:44:02.836Z,5.40
2019-04-04T03:50:18.290Z,5.40
2019-04-04T03:52:56.721Z,5.40
2019-04-04T03:55:33.059Z,5.40
2019-04-04T04:01:46.888Z,5.40
2019-04-04T04:04:21.045Z,5.40
2019-04-04T04:06:56.284Z,5.20
2019-04-04T04:09:30.828Z,5.10
2019-04-04T04:12:07.792Z,5.00
2019-04-04T04:18:22.178Z,5.00
2019-04-04T04:24:36.829Z,4.90
2019-04-04T04:27:14.732Z,4.90
2019-04-04T04:29:48.030Z,4.90
2019-04-04T04:32:24.087Z,4.80
2019-04-04T04:34:59.325Z,4.80
2019-04-04T04:37:34.364Z,4.70
2019-04-04T04:40:13.765Z,4.60
2019-04-04T04:42:45.474Z,4.70
2019-04-04T04:45:41.685Z,4.70
2019-04-04T04:48:16.215Z,4.80
2019-04-04T04:50:58.204Z,4.70
2019-04-04T04:53:34.051Z,4.60
2019-04-04T04:56:21.173Z,4.30
2019-04-04T04:58:56.254Z,4.30
2019-04-04T05:01:32.054Z,4.20
2019-04-04T05:08:09.650Z,3.90
2019-04-04T05:10:46.329Z,3.90
2019-04-04T05:16:57.146Z,3.80
2019-04-04T05:19:32.169Z,3.80
2019-04-04T05:22:09.261Z,3.70
2019-04-04T05:27:48.837Z,3.60
2019-04-04T05:34:11.176Z,3.60
2019-04-04T05:40:30.579Z,3.50
2019-04-04T05:46:59.280Z,3.50
2019-04-04T05:49:39.642Z,3.30
2019-04-04T05:52:15.895Z,3.30
2019-04-04T05:54:53.709Z,3.30
2019-04-04T05:57:28.633Z,3.40
2019-04-04T06:00:03.086Z,3.40
2019-04-04T06:02:37.678Z,3.60
2019-04-04T06:05:15.895Z,3.60
2019-04-04T06:07:51.630Z,3.70
2019-04-04T06:10:29.088Z,3.80
2019-04-04T06:13:08.904Z,3.90
2019-04-04T06:15:45.533Z,4.00
2019-04-04T06:18:21.091Z,4.10
2019-04-04T06:20:57.977Z,4.10
2019-04-04T06:23:32.096Z,3.90
2019-04-04T06:26:12.089Z,3.70
2019-04-04T06:28:47.457Z,3.30
2019-04-04T06:31:26.209Z,3.40
2019-04-04T06:34:02.094Z,3.20
2019-04-04T06:36:37.472Z,3.30
2019-04-04T06:39:12.302Z,3.40
2019-04-04T06:41:49.595Z,3.30
2019-04-04T06:44:33.433Z,3.10
2019-04-04T06:47:28.948Z,2.90
2019-04-04T06:50:07.160Z,3.00
2019-04-04T06:52:39.098Z,2.80
2019-04-04T06:55:13.839Z,2.80
2019-04-04T06:57:52.566Z,2.90
2019-04-04T07:00:29.435Z,3.00
2019-04-04T07:03:04.094Z,3.10
2019-04-04T07:05:39.009Z,3.10
2019-04-04T07:08:17.617Z,2.90
2019-04-04T07:11:03.255Z,2.80
2019-04-04T07:13:42.771Z,3.00
2019-04-04T07:16:15.113Z,2.90
2019-04-04T07:18:48.595Z,3.10
2019-04-04T07:21:24.448Z,3.20
2019-04-04T07:24:00.099Z,3.30
2019-04-04T07:26:35.539Z,3.40
2019-04-04T07:29:12.417Z,3.40
2019-04-04T07:31:47.115Z,3.50
2019-04-04T07:34:22.334Z,3.40
2019-04-04T07:36:57.722Z,3.20
2019-04-04T07:39:32.838Z,3.30
2019-04-04T07:42:06.561Z,3.20
2019-04-04T07:44:44.343Z,3.30
2019-04-04T07:47:19.351Z,3.30
2019-04-04T07:49:55.029Z,3.40
2019-04-04T07:52:32.709Z,3.70
2019-04-04T07:58:48.661Z,3.70
2019-04-04T08:05:07.942Z,3.90
2019-04-04T08:07:49.732Z,4.10
2019-04-04T08:10:29.682Z,4.20
2019-04-04T08:13:07.795Z,4.20
2019-04-04T08:15:53.899Z,4.00
2019-04-04T08:18:29.744Z,4.00
2019-04-04T08:21:14.114Z,4.10
2019-04-04T08:23:49.828Z,4.10
2019-04-04T08:29:47.030Z,4.30
2019-04-04T08:32:22.853Z,4.30
2019-04-04T08:34:58.706Z,4.00
2019-04-04T08:37:33.944Z,3.90
2019-04-04T08:40:11.845Z,3.70
2019-04-04T08:46:19.755Z,3.80
2019-04-04T08:52:28.390Z,3.90
2019-04-04T08:58:30.598Z,3.80
2019-04-04T09:01:04.608Z,3.70
2019-04-04T09:03:45.988Z,3.90
2019-04-04T09:09:48.995Z,4.10
2019-04-04T09:15:51.417Z,4.00
2019-04-04T09:18:29.701Z,4.00
2019-04-04T09:24:45.306Z,4.00
2019-04-04T09:27:22.416Z,3.60
2019-04-04T09:29:57.902Z,3.50
2019-04-04T09:32:30.609Z,3.50
2019-04-04T09:35:10.968Z,3.40
2019-04-04T09:37:51.772Z,3.50
2019-04-04T09:44:07.402Z,3.70
2019-04-04T09:50:13.726Z,3.30
2019-04-04T09:52:54.018Z,3.60
2019-04-04T09:55:29.420Z,3.60
2019-04-04T09:58:03.946Z,3.80
2019-04-04T10:00:38.409Z,4.00
2019-04-04T10:03:12.990Z,4.00
2019-04-04T10:05:47.622Z,4.10
2019-04-04T10:08:23.876Z,3.90
2019-04-04T10:11:01.785Z,3.70
2019-04-04T10:13:36.441Z,3.40
2019-04-04T10:16:12.870Z,3.30
2019-04-04T10:18:47.695Z,3.30
2019-04-04T10:21:22.407Z,3.50
2019-04-04T10:23:56.407Z,3.60
2019-04-04T10:26:31.980Z,3.60
2019-04-04T10:29:07.627Z,3.70
2019-04-04T10:31:43.888Z,3.50
2019-04-04T10:34:19.419Z,3.30
2019-04-04T10:36:54.989Z,3.20
2019-04-04T10:39:32.795Z,3.10
2019-04-04T10:42:07.716Z,3.30
2019-04-04T10:45:03.340Z,3.50
2019-04-04T10:47:39.418Z,3.50
2019-04-04T10:50:17.795Z,3.20
2019-04-04T10:52:57.327Z,3.40
2019-04-04T10:55:31.958Z,3.70
2019-04-04T10:58:06.790Z,3.70
2019-04-04T11:00:42.641Z,3.70
2019-04-04T11:03:16.649Z,3.70
2019-04-04T11:05:51.888Z,3.70
2019-04-04T11:08:26.716Z,4.00
2019-04-04T11:11:03.421Z,4.00
2019-04-04T11:13:40.889Z,4.00
2019-04-04T11:16:24.548Z,3.70
2019-04-04T11:18:54.019Z,3.70
2019-04-04T11:21:30.285Z,3.60
2019-04-04T11:24:11.050Z,3.30
2019-04-04T11:26:46.910Z,3.40
2019-04-04T11:29:22.753Z,3.30
2019-04-04T11:31:59.646Z,3.30
2019-04-04T11:34:33.640Z,3.40
2019-04-04T11:37:09.903Z,3.20
2019-04-04T11:39:54.553Z,3.20
2019-04-04T11:42:22.017Z,3.40
2019-04-04T11:44:56.848Z,3.80
2019-04-04T11:47:35.772Z,4.10
2019-04-04T11:50:13.878Z,4.30
2019-04-04T11:52:49.939Z,4.30
2019-04-04T11:55:25.788Z,4.60
2019-04-04T12:01:29.921Z,4.90
2019-04-04T12:07:39.446Z,4.80
2019-04-04T12:13:31.458Z,4.90
2019-04-04T12:16:05.855Z,5.10
2019-04-04T12:22:07.735Z,5.20
2019-04-04T12:28:11.100Z,5.30
2019-04-04T12:30:53.048Z,5.10
2019-04-04T12:33:27.668Z,5.20
2019-04-04T12:39:47.580Z,4.60
2019-04-04T12:42:21.486Z,4.40
2019-04-04T12:44:56.455Z,4.30
2019-04-04T12:47:39.025Z,4.40
2019-04-04T12:50:14.671Z,4.60
2019-04-04T12:52:50.452Z,4.70
2019-04-04T12:55:24.456Z,4.70
2019-04-04T13:01:27.030Z,4.40
2019-04-04T13:04:01.858Z,4.10
2019-04-04T13:06:36.687Z,4.10
2019-04-04T13:09:16.840Z,4.20
2019-04-04T13:11:50.473Z,4.30
2019-04-04T13:14:25.678Z,4.30
2019-04-04T13:20:43.474Z,4.30
2019-04-04T13:33:22.618Z,4.10
2019-04-04T13:36:01.482Z,4.00
2019-04-04T13:38:42.482Z,4.10
2019-04-04T13:41:25.354Z,4.20
2019-04-04T13:44:00.679Z,4.30
2019-04-04T13:49:51.476Z,4.30
2019-04-04T13:52:27.087Z,4.20
2019-04-04T13:55:01.362Z,4.20
2019-04-04T14:01:19.014Z,3.90
2019-04-04T14:03:55.509Z,4.00
2019-04-04T14:06:32.778Z,4.00
2019-04-04T14:12:49.499Z,3.90
2019-04-04T14:21:10.129Z,4.00
2019-04-04T14:23:45.377Z,4.10
2019-04-04T14:26:19.499Z,4.20
2019-04-04T14:29:06.698Z,4.30
2019-04-04T14:35:25.170Z,4.20
2019-04-04T14:38:01.858Z,4.40
2019-04-04T14:44:05.979Z,4.50
2019-04-04T14:49:58.052Z,4.20
2019-04-04T14:56:05.446Z,4.00
2019-04-04T15:02:09.177Z,4.20
2019-04-04T15:04:45.839Z,4.00
2019-04-04T15:07:23.201Z,4.00
2019-04-04T15:13:31.969Z,4.00
2019-04-04T15:19:34.883Z,4.30
2019-04-04T15:22:14.737Z,4.30
2019-04-04T15:24:53.970Z,4.30
2019-04-04T15:31:18.362Z,4.00
2019-04-04T15:37:35.206Z,3.80
2019-04-04T15:40:12.272Z,3.80
2019-04-04T15:42:49.832Z,3.90
2019-04-04T15:49:05.367Z,4.00
2019-04-04T15:51:40.403Z,3.90
2019-04-04T15:54:18.948Z,3.90
2019-04-04T16:00:40.941Z,4.00
2019-04-04T16:03:16.310Z,4.00
2019-04-04T16:05:51.986Z,4.00
2019-04-04T16:08:27.197Z,3.90
2019-04-04T16:11:03.872Z,3.90
2019-04-04T16:17:10.330Z,3.90
2019-04-04T16:23:12.004Z,3.80
2019-04-04T16:29:15.247Z,3.70
2019-04-04T16:31:52.945Z,3.90
2019-04-04T16:34:28.057Z,4.00
2019-04-04T16:40:09.143Z,4.10
2019-04-04T16:42:52.401Z,3.90
2019-04-04T16:49:09.453Z,3.70
2019-04-04T16:55:10.293Z,3.80
2019-04-04T17:01:26.306Z,4.00
2019-04-04T17:04:05.642Z,4.10
2019-04-04T17:06:45.386Z,4.00
2019-04-04T17:13:15.945Z,3.70
2019-04-04T17:15:52.609Z,3.90
2019-04-04T17:18:29.692Z,4.00
2019-04-04T17:21:04.524Z,4.00
2019-04-04T17:23:41.132Z,3.90
2019-04-04T17:26:16.637Z,3.80
2019-04-04T17:32:20.198Z,3.80
2019-04-04T17:38:01.764Z,3.90
2019-04-04T17:40:37.983Z,3.90
2019-04-04T17:46:31.250Z,3.70
2019-04-04T17:52:49.125Z,3.50
2019-04-04T17:59:05.582Z,3.40
2019-04-04T18:01:44.943Z,3.30
2019-04-04T18:04:23.227Z,3.30
2019-04-04T18:10:26.959Z,3.30
2019-04-04T18:16:36.826Z,3.30
2019-04-04T18:19:12.683Z,3.20
2019-04-04T18:21:48.742Z,3.20
2019-04-04T18:27:51.840Z,3.30
2019-04-04T18:30:27.366Z,3.30
2019-04-04T18:36:20.868Z,3.30
2019-04-04T18:38:55.479Z,3.40
2019-04-04T18:44:49.906Z,3.50
2019-04-04T18:50:33.971Z,3.60
2019-04-04T18:53:12.894Z,3.50
2019-04-04T18:55:54.909Z,3.60
2019-04-04T19:02:03.116Z,3.50
2019-04-04T19:08:21.790Z,3.40
2019-04-04T19:10:58.259Z,3.30
2019-04-04T19:13:44.175Z,3.30
2019-04-04T19:19:51.966Z,3.40
2019-04-04T19:22:27.000Z,3.40
2019-04-04T19:25:01.663Z,3.40
2019-04-04T19:27:35.661Z,3.40
2019-04-04T19:36:12.958Z,3.40
2019-04-04T19:38:48.684Z,3.50
2019-04-04T19:41:22.615Z,3.50
2019-04-04T19:44:00.391Z,3.60
2019-04-04T19:46:37.169Z,3.50
2019-04-04T19:49:11.696Z,3.60
2019-04-04T19:51:47.699Z,3.60
2019-04-04T19:58:03.064Z,3.60
2019-04-04T20:04:07.197Z,3.50
2019-04-04T20:10:15.776Z,3.60
2019-04-04T20:12:50.462Z,3.70
2019-04-04T20:15:26.660Z,3.70
2019-04-04T20:18:01.813Z,3.70
2019-04-04T20:20:36.826Z,3.80
2019-04-04T20:26:43.177Z,3.90
2019-04-04T20:32:46.391Z,4.00
2019-04-04T20:39:01.993Z,4.00
2019-04-04T20:41:37.027Z,4.00
2019-04-04T20:44:14.635Z,4.00
2019-04-04T20:46:52.958Z,4.00
2019-04-04T20:49:28.681Z,3.90
2019-04-04T20:55:44.083Z,3.90
2019-04-04T20:58:25.464Z,3.80
2019-04-04T21:01:02.750Z,3.80
2019-04-04T21:07:19.991Z,3.70
2019-04-04T21:09:54.820Z,3.80
2019-04-04T21:12:35.004Z,3.60
2019-04-04T21:18:50.472Z,3.70
2019-04-04T21:21:27.144Z,3.80
2019-04-04T21:24:01.598Z,3.80
2019-04-04T21:30:16.759Z,3.70
2019-04-04T21:32:55.784Z,3.70
2019-04-04T21:35:31.439Z,3.70
2019-04-04T21:41:29.489Z,3.70
2019-04-04T21:47:44.824Z,3.70
2019-04-04T21:50:24.988Z,3.80
2019-04-04T21:53:06.982Z,3.80
2019-04-04T21:55:43.031Z,3.80
2019-04-04T21:58:28.932Z,3.70
2019-04-04T22:04:48.499Z,3.70
2019-04-04T22:07:25.098Z,3.70
2019-04-04T22:10:02.986Z,3.60
2019-04-04T22:16:21.499Z,3.70
2019-04-04T22:18:59.254Z,3.80
2019-04-04T22:21:35.615Z,3.70
2019-04-04T22:24:10.548Z,3.70
2019-04-04T22:26:47.220Z,3.70
2019-04-04T22:29:21.637Z,3.70
2019-04-04T22:35:24.747Z,3.80
2019-04-04T22:41:27.039Z,3.90
2019-04-04T22:47:30.354Z,3.90
2019-04-04T22:53:22.759Z,3.80
2019-04-04T22:59:25.519Z,3.90
2019-04-04T23:05:26.987Z,3.80
2019-04-04T23:08:20.055Z,3.90
2019-04-04T23:10:56.305Z,4.00
2019-04-04T23:13:31.778Z,4.10
2019-04-04T23:16:05.786Z,4.10
2019-04-04T23:22:10.304Z,3.90
2019-04-04T23:28:14.772Z,4.10
2019-04-04T23:30:48.241Z,4.10
2019-04-04T23:33:24.298Z,4.10
2019-04-04T23:35:58.722Z,4.00
2019-04-04T23:38:33.136Z,4.10
2019-04-04T23:41:07.796Z,4.10
2019-04-04T23:43:41.804Z,4.00
2019-04-04T23:46:16.396Z,4.10
2019-04-04T23:48:51.020Z,4.10
2019-04-04T23:51:26.050Z,4.10
2019-04-04T23:54:01.788Z,4.10
2019-04-04T23:56:36.117Z,4.10
2019-04-04T23:59:10.787Z,4.00
